Terminal Aerodrome Forecast
Issued by NWS Tiyan, Guam

Home | Current Version | Previous Version | Text Only | Print | Product List | Glossary On
Versions: 1 2 3 4 5 6 7 8 9 10 11 12 13 14 15 16 17 18 19 20 21 22 23 24 25 26 27 28 29 30
000
FTPQ31 PGUM 190520
TAFGUM
TAF
PGUM 190520Z 1906/2012 16009KT P6SM VCSH FEW018 SCT050 OVC130
      TEMPO 1907/1911 5SM SHRA SCT018 OVC030=

USA.gov is the U.S. government's official web portal to all federal, state and local government web resources and services.